sensor_id;sensor_type;location;lat;lon;timestamp;P1;durP1;ratioP1;P2;durP2;ratioP2
3543;SDS011;1786;52.870;9.578;2024-02-28T00:01:50;8.73;;;7.00;;
3543;SDS011;1786;52.870;9.578;2024-02-28T00:04:18;9.23;;;7.80;;
3543;SDS011;1786;52.870;9.578;2024-02-28T00:06:45;8.90;;;7.60;;
3543;SDS011;1786;52.870;9.578;2024-02-28T00:09:15;9.27;;;6.90;;
3543;SDS011;1786;52.870;9.578;2024-02-28T00:11:45;8.93;;;7.97;;
3543;SDS011;1786;52.870;9.578;2024-02-28T00:14:13;11.23;;;7.00;;
3543;SDS011;1786;52.870;9.578;2024-02-28T00:16:43;10.33;;;7.43;;
3543;SDS011;1786;52.870;9.578;2024-02-28T00:19:10;7.90;;;6.50;;
3543;SDS011;1786;52.870;9.578;2024-02-28T00:21:39;7.30;;;6.60;;
3543;SDS011;1786;52.870;9.578;2024-02-28T00:24:07;10.20;;;7.40;;
3543;SDS011;1786;52.870;9.578;2024-02-28T00:26:34;11.47;;;7.70;;
3543;SDS011;1786;52.870;9.578;2024-02-28T00:29:01;8.43;;;6.97;;
3543;SDS011;1786;52.870;9.578;2024-02-28T00:31:28;7.30;;;6.43;;
3543;SDS011;1786;52.870;9.578;2024-02-28T00:33:55;11.67;;;8.10;;
3543;SDS011;1786;52.870;9.578;2024-02-28T00:36:21;8.77;;;7.43;;
3543;SDS011;1786;52.870;9.578;2024-02-28T00:38:48;7.93;;;6.60;;
3543;SDS011;1786;52.870;9.578;2024-02-28T00:41:15;9.93;;;7.00;;
3543;SDS011;1786;52.870;9.578;2024-02-28T00:43:42;9.33;;;7.37;;
3543;SDS011;1786;52.870;9.578;2024-02-28T00:46:08;11.40;;;7.87;;
3543;SDS011;1786;52.870;9.578;2024-02-28T00:48:41;9.10;;;7.63;;
3543;SDS011;1786;52.870;9.578;2024-02-28T00:51:07;9.33;;;7.27;;
3543;SDS011;1786;52.870;9.578;2024-02-28T00:53:35;9.60;;;7.10;;
3543;SDS011;1786;52.870;9.578;2024-02-28T00:56:01;8.50;;;7.23;;
3543;SDS011;1786;52.870;9.578;2024-02-28T00:58:28;9.77;;;7.37;;
3543;SDS011;1786;52.870;9.578;2024-02-28T01:00:56;7.93;;;7.10;;
3543;SDS011;1786;52.870;9.578;2024-02-28T01:03:24;11.67;;;7.90;;
3543;SDS011;1786;52.870;9.578;2024-02-28T01:05:51;8.20;;;6.10;;
3543;SDS011;1786;52.870;9.578;2024-02-28T01:08:18;8.33;;;6.30;;
3543;SDS011;1786;52.870;9.578;2024-02-28T01:10:45;7.70;;;6.30;;
3543;SDS011;1786;52.870;9.578;2024-02-28T01:13:12;9.70;;;6.30;;
3543;SDS011;1786;52.870;9.578;2024-02-28T01:15:41;9.20;;;6.80;;
3543;SDS011;1786;52.870;9.578;2024-02-28T01:18:08;9.20;;;7.53;;
3543;SDS011;1786;52.870;9.578;2024-02-28T01:20:36;9.53;;;7.10;;
3543;SDS011;1786;52.870;9.578;2024-02-28T01:23:03;8.90;;;7.80;;
3543;SDS011;1786;52.870;9.578;2024-02-28T01:25:30;8.90;;;7.03;;
3543;SDS011;1786;52.870;9.578;2024-02-28T01:27:57;11.37;;;7.90;;
3543;SDS011;1786;52.870;9.578;2024-02-28T01:30:26;9.43;;;6.80;;
3543;SDS011;1786;52.870;9.578;2024-02-28T01:32:53;9.00;;;6.73;;
3543;SDS011;1786;52.870;9.578;2024-02-28T01:35:20;9.30;;;7.17;;
3543;SDS011;1786;52.870;9.578;2024-02-28T01:37:46;7.07;;;6.37;;
3543;SDS011;1786;52.870;9.578;2024-02-28T01:40:13;8.73;;;7.27;;
3543;SDS011;1786;52.870;9.578;2024-02-28T01:42:40;7.43;;;6.70;;
3543;SDS011;1786;52.870;9.578;2024-02-28T01:45:07;8.33;;;6.60;;
3543;SDS011;1786;52.870;9.578;2024-02-28T01:47:36;10.43;;;7.63;;
3543;SDS011;1786;52.870;9.578;2024-02-28T01:50:04;9.00;;;7.23;;
3543;SDS011;1786;52.870;9.578;2024-02-28T01:52:31;8.53;;;6.93;;
3543;SDS011;1786;52.870;9.578;2024-02-28T01:54:58;10.10;;;7.63;;
3543;SDS011;1786;52.870;9.578;2024-02-28T01:57:25;11.53;;;7.70;;
3543;SDS011;1786;52.870;9.578;2024-02-28T01:59:52;7.90;;;6.90;;
3543;SDS011;1786;52.870;9.578;2024-02-28T02:02:22;10.87;;;6.30;;
3543;SDS011;1786;52.870;9.578;2024-02-28T02:04:48;10.13;;;7.23;;
3543;SDS011;1786;52.870;9.578;2024-02-28T02:07:15;11.83;;;8.50;;
3543;SDS011;1786;52.870;9.578;2024-02-28T02:09:42;9.20;;;7.03;;
3543;SDS011;1786;52.870;9.578;2024-02-28T02:12:09;10.90;;;7.30;;
3543;SDS011;1786;52.870;9.578;2024-02-28T02:14:36;16.30;;;11.07;;
3543;SDS011;1786;52.870;9.578;2024-02-28T02:17:02;13.47;;;8.50;;
3543;SDS011;1786;52.870;9.578;2024-02-28T02:19:29;13.47;;;8.20;;
3543;SDS011;1786;52.870;9.578;2024-02-28T02:21:57;10.40;;;7.70;;
3543;SDS011;1786;52.870;9.578;2024-02-28T02:24:25;12.50;;;7.93;;
3543;SDS011;1786;52.870;9.578;2024-02-28T02:26:57;8.43;;;6.40;;
3543;SDS011;1786;52.870;9.578;2024-02-28T02:29:24;10.00;;;8.20;;
3543;SDS011;1786;52.870;9.578;2024-02-28T02:31:51;12.93;;;8.90;;
3543;SDS011;1786;52.870;9.578;2024-02-28T02:34:17;10.40;;;8.50;;
3543;SDS011;1786;52.870;9.578;2024-02-28T02:36:44;11.63;;;8.43;;
3543;SDS011;1786;52.870;9.578;2024-02-28T02:39:10;9.23;;;7.90;;
3543;SDS011;1786;52.870;9.578;2024-02-28T02:41:37;11.20;;;8.00;;
3543;SDS011;1786;52.870;9.578;2024-02-28T02:44:04;14.93;;;11.70;;
3543;SDS011;1786;52.870;9.578;2024-02-28T02:46:31;14.90;;;10.57;;
3543;SDS011;1786;52.870;9.578;2024-02-28T02:48:58;16.77;;;10.87;;
3543;SDS011;1786;52.870;9.578;2024-02-28T02:51:24;12.13;;;8.93;;
3543;SDS011;1786;52.870;9.578;2024-02-28T02:53:52;10.53;;;8.27;;
3543;SDS011;1786;52.870;9.578;2024-02-28T02:56:20;9.70;;;6.83;;
3543;SDS011;1786;52.870;9.578;2024-02-28T02:58:46;7.77;;;6.73;;
3543;SDS011;1786;52.870;9.578;2024-02-28T03:01:13;9.07;;;7.30;;
3543;SDS011;1786;52.870;9.578;2024-02-28T03:03:40;10.23;;;7.10;;
3543;SDS011;1786;52.870;9.578;2024-02-28T03:06:07;8.80;;;7.30;;
3543;SDS011;1786;52.870;9.578;2024-02-28T03:08:33;8.90;;;7.10;;
3543;SDS011;1786;52.870;9.578;2024-02-28T03:11:00;13.30;;;7.47;;
3543;SDS011;1786;52.870;9.578;2024-02-28T03:13:27;13.03;;;7.90;;
3543;SDS011;1786;52.870;9.578;2024-02-28T03:15:55;10.80;;;7.73;;
3543;SDS011;1786;52.870;9.578;2024-02-28T03:18:21;13.53;;;7.83;;
3543;SDS011;1786;52.870;9.578;2024-02-28T03:20:48;10.63;;;7.77;;
3543;SDS011;1786;52.870;9.578;2024-02-28T03:23:15;11.10;;;7.67;;
3543;SDS011;1786;52.870;9.578;2024-02-28T03:25:41;8.20;;;7.00;;
3543;SDS011;1786;52.870;9.578;2024-02-28T03:28:08;12.47;;;7.77;;
3543;SDS011;1786;52.870;9.578;2024-02-28T03:30:35;9.57;;;6.93;;
3543;SDS011;1786;52.870;9.578;2024-02-28T03:33:01;11.50;;;8.07;;
3543;SDS011;1786;52.870;9.578;2024-02-28T03:35:28;9.90;;;7.43;;
3543;SDS011;1786;52.870;9.578;2024-02-28T03:37:55;10.10;;;7.03;;
3543;SDS011;1786;52.870;9.578;2024-02-28T03:40:21;11.00;;;6.90;;
3543;SDS011;1786;52.870;9.578;2024-02-28T03:42:48;10.27;;;7.83;;
3543;SDS011;1786;52.870;9.578;2024-02-28T03:45:14;11.67;;;7.90;;
3543;SDS011;1786;52.870;9.578;2024-02-28T03:47:41;8.37;;;7.20;;
3543;SDS011;1786;52.870;9.578;2024-02-28T03:50:08;9.53;;;7.73;;
3543;SDS011;1786;52.870;9.578;2024-02-28T03:52:34;9.50;;;7.77;;
3543;SDS011;1786;52.870;9.578;2024-02-28T03:55:01;8.07;;;6.80;;
3543;SDS011;1786;52.870;9.578;2024-02-28T03:57:28;8.07;;;7.27;;
3543;SDS011;1786;52.870;9.578;2024-02-28T03:59:55;14.93;;;7.30;;
3543;SDS011;1786;52.870;9.578;2024-02-28T04:02:21;8.77;;;7.27;;
3543;SDS011;1786;52.870;9.578;2024-02-28T04:04:48;7.53;;;6.60;;
3543;SDS011;1786;52.870;9.578;2024-02-28T04:07:14;10.93;;;7.23;;
3543;SDS011;1786;52.870;9.578;2024-02-28T04:09:41;10.60;;;7.07;;
3543;SDS011;1786;52.870;9.578;2024-02-28T04:12:08;10.50;;;6.77;;
3543;SDS011;1786;52.870;9.578;2024-02-28T04:14:37;7.90;;;7.10;;
3543;SDS011;1786;52.870;9.578;2024-02-28T04:17:05;8.33;;;6.70;;
3543;SDS011;1786;52.870;9.578;2024-02-28T04:19:34;9.13;;;7.43;;
3543;SDS011;1786;52.870;9.578;2024-02-28T04:22:05;7.97;;;6.90;;
3543;SDS011;1786;52.870;9.578;2024-02-28T04:24:32;9.67;;;7.13;;
3543;SDS011;1786;52.870;9.578;2024-02-28T04:26:59;11.00;;;8.70;;
3543;SDS011;1786;52.870;9.578;2024-02-28T04:29:26;10.30;;;8.33;;
3543;SDS011;1786;52.870;9.578;2024-02-28T04:31:52;9.90;;;7.63;;
3543;SDS011;1786;52.870;9.578;2024-02-28T04:34:19;12.43;;;8.40;;
3543;SDS011;1786;52.870;9.578;2024-02-28T04:36:45;9.67;;;7.57;;
3543;SDS011;1786;52.870;9.578;2024-02-28T04:39:12;13.03;;;8.70;;
3543;SDS011;1786;52.870;9.578;2024-02-28T04:41:39;10.73;;;7.90;;
3543;SDS011;1786;52.870;9.578;2024-02-28T04:44:05;14.90;;;8.73;;
3543;SDS011;1786;52.870;9.578;2024-02-28T04:46:33;12.30;;;8.50;;
3543;SDS011;1786;52.870;9.578;2024-02-28T04:49:00;11.17;;;8.57;;
3543;SDS011;1786;52.870;9.578;2024-02-28T04:51:27;13.33;;;8.40;;
3543;SDS011;1786;52.870;9.578;2024-02-28T04:53:53;11.10;;;8.63;;
3543;SDS011;1786;52.870;9.578;2024-02-28T04:56:20;11.17;;;8.60;;
3543;SDS011;1786;52.870;9.578;2024-02-28T04:58:47;11.70;;;8.27;;
3543;SDS011;1786;52.870;9.578;2024-02-28T05:01:13;12.77;;;9.70;;
3543;SDS011;1786;52.870;9.578;2024-02-28T05:03:42;13.20;;;10.43;;
3543;SDS011;1786;52.870;9.578;2024-02-28T05:06:09;15.33;;;10.37;;
3543;SDS011;1786;52.870;9.578;2024-02-28T05:08:39;13.40;;;10.50;;
3543;SDS011;1786;52.870;9.578;2024-02-28T05:11:05;15.90;;;10.40;;
3543;SDS011;1786;52.870;9.578;2024-02-28T05:13:32;13.73;;;10.10;;
3543;SDS011;1786;52.870;9.578;2024-02-28T05:15:58;14.60;;;10.40;;
3543;SDS011;1786;52.870;9.578;2024-02-28T05:18:25;17.37;;;10.97;;
3543;SDS011;1786;52.870;9.578;2024-02-28T05:20:52;17.27;;;10.93;;
3543;SDS011;1786;52.870;9.578;2024-02-28T05:23:19;16.27;;;11.30;;
3543;SDS011;1786;52.870;9.578;2024-02-28T05:25:46;18.23;;;11.10;;
3543;SDS011;1786;52.870;9.578;2024-02-28T05:28:13;15.17;;;10.40;;
3543;SDS011;1786;52.870;9.578;2024-02-28T05:30:39;19.30;;;12.57;;
3543;SDS011;1786;52.870;9.578;2024-02-28T05:33:10;17.67;;;12.80;;
3543;SDS011;1786;52.870;9.578;2024-02-28T05:35:38;19.30;;;13.47;;
3543;SDS011;1786;52.870;9.578;2024-02-28T05:38:05;20.47;;;13.20;;
3543;SDS011;1786;52.870;9.578;2024-02-28T05:40:32;20.10;;;12.90;;
3543;SDS011;1786;52.870;9.578;2024-02-28T05:42:58;21.07;;;14.10;;
3543;SDS011;1786;52.870;9.578;2024-02-28T05:45:25;20.50;;;13.80;;
3543;SDS011;1786;52.870;9.578;2024-02-28T05:47:52;22.17;;;14.03;;
3543;SDS011;1786;52.870;9.578;2024-02-28T05:50:19;21.37;;;13.77;;
3543;SDS011;1786;52.870;9.578;2024-02-28T05:52:45;24.33;;;14.00;;
3543;SDS011;1786;52.870;9.578;2024-02-28T05:55:12;24.43;;;14.80;;
3543;SDS011;1786;52.870;9.578;2024-02-28T05:57:39;20.53;;;14.50;;
3543;SDS011;1786;52.870;9.578;2024-02-28T06:00:06;20.70;;;14.50;;
3543;SDS011;1786;52.870;9.578;2024-02-28T06:02:37;19.20;;;12.87;;
3543;SDS011;1786;52.870;9.578;2024-02-28T06:05:04;20.47;;;13.70;;
3543;SDS011;1786;52.870;9.578;2024-02-28T06:07:31;22.57;;;14.90;;
3543;SDS011;1786;52.870;9.578;2024-02-28T06:09:57;22.70;;;14.83;;
3543;SDS011;1786;52.870;9.578;2024-02-28T06:12:24;20.07;;;13.13;;
3543;SDS011;1786;52.870;9.578;2024-02-28T06:14:51;21.90;;;14.60;;
3543;SDS011;1786;52.870;9.578;2024-02-28T06:17:19;20.47;;;14.20;;
3543;SDS011;1786;52.870;9.578;2024-02-28T06:19:47;22.03;;;14.40;;
3543;SDS011;1786;52.870;9.578;2024-02-28T06:22:14;23.17;;;15.20;;
3543;SDS011;1786;52.870;9.578;2024-02-28T06:24:41;20.50;;;13.70;;
3543;SDS011;1786;52.870;9.578;2024-02-28T06:27:07;18.63;;;13.33;;
3543;SDS011;1786;52.870;9.578;2024-02-28T06:29:41;21.00;;;14.37;;
3543;SDS011;1786;52.870;9.578;2024-02-28T06:32:08;21.03;;;14.10;;
3543;SDS011;1786;52.870;9.578;2024-02-28T06:34:34;22.73;;;13.80;;
3543;SDS011;1786;52.870;9.578;2024-02-28T06:37:01;22.10;;;14.50;;
3543;SDS011;1786;52.870;9.578;2024-02-28T06:39:28;25.30;;;14.40;;
3543;SDS011;1786;52.870;9.578;2024-02-28T06:41:55;23.63;;;13.50;;
3543;SDS011;1786;52.870;9.578;2024-02-28T06:44:21;28.50;;;16.90;;
3543;SDS011;1786;52.870;9.578;2024-02-28T06:46:48;33.37;;;16.60;;
3543;SDS011;1786;52.870;9.578;2024-02-28T06:49:15;29.30;;;17.27;;
3543;SDS011;1786;52.870;9.578;2024-02-28T06:51:43;30.00;;;17.87;;
3543;SDS011;1786;52.870;9.578;2024-02-28T06:54:11;24.67;;;16.23;;
3543;SDS011;1786;52.870;9.578;2024-02-28T06:56:38;25.20;;;17.13;;
3543;SDS011;1786;52.870;9.578;2024-02-28T06:59:05;27.23;;;16.47;;
3543;SDS011;1786;52.870;9.578;2024-02-28T07:01:33;28.40;;;17.97;;
3543;SDS011;1786;52.870;9.578;2024-02-28T07:04:00;24.00;;;15.70;;
3543;SDS011;1786;52.870;9.578;2024-02-28T07:06:27;30.03;;;18.83;;
3543;SDS011;1786;52.870;9.578;2024-02-28T07:08:54;29.90;;;19.13;;
3543;SDS011;1786;52.870;9.578;2024-02-28T07:11:20;27.60;;;18.30;;
3543;SDS011;1786;52.870;9.578;2024-02-28T07:13:48;30.03;;;18.67;;
3543;SDS011;1786;52.870;9.578;2024-02-28T07:16:15;28.77;;;18.13;;
3543;SDS011;1786;52.870;9.578;2024-02-28T07:18:41;26.63;;;17.53;;
3543;SDS011;1786;52.870;9.578;2024-02-28T07:21:08;30.13;;;18.63;;
3543;SDS011;1786;52.870;9.578;2024-02-28T07:23:38;29.07;;;18.20;;
3543;SDS011;1786;52.870;9.578;2024-02-28T07:26:06;34.10;;;19.17;;
3543;SDS011;1786;52.870;9.578;2024-02-28T07:28:44;32.67;;;18.83;;
3543;SDS011;1786;52.870;9.578;2024-02-28T07:31:16;35.17;;;20.90;;
3543;SDS011;1786;52.870;9.578;2024-02-28T07:33:42;32.50;;;19.33;;
3543;SDS011;1786;52.870;9.578;2024-02-28T07:36:09;32.53;;;20.97;;
3543;SDS011;1786;52.870;9.578;2024-02-28T07:38:36;31.80;;;20.40;;
3543;SDS011;1786;52.870;9.578;2024-02-28T07:41:03;29.43;;;20.10;;
3543;SDS011;1786;52.870;9.578;2024-02-28T07:43:30;33.30;;;21.00;;
3543;SDS011;1786;52.870;9.578;2024-02-28T07:46:06;31.87;;;19.30;;
3543;SDS011;1786;52.870;9.578;2024-02-28T07:48:34;35.37;;;21.60;;
3543;SDS011;1786;52.870;9.578;2024-02-28T07:51:03;34.97;;;21.23;;
3543;SDS011;1786;52.870;9.578;2024-02-28T07:53:31;33.87;;;21.80;;
3543;SDS011;1786;52.870;9.578;2024-02-28T07:55:58;35.87;;;21.37;;
3543;SDS011;1786;52.870;9.578;2024-02-28T07:58:25;32.20;;;21.70;;
3543;SDS011;1786;52.870;9.578;2024-02-28T08:00:51;37.33;;;22.17;;
3543;SDS011;1786;52.870;9.578;2024-02-28T08:03:21;35.30;;;19.57;;
3543;SDS011;1786;52.870;9.578;2024-02-28T08:05:48;35.60;;;20.80;;
3543;SDS011;1786;52.870;9.578;2024-02-28T08:08:15;42.57;;;23.10;;
3543;SDS011;1786;52.870;9.578;2024-02-28T08:10:43;35.53;;;21.83;;
3543;SDS011;1786;52.870;9.578;2024-02-28T08:13:11;40.13;;;22.60;;
3543;SDS011;1786;52.870;9.578;2024-02-28T08:15:38;37.33;;;23.00;;
3543;SDS011;1786;52.870;9.578;2024-02-28T08:18:05;35.00;;;21.87;;
3543;SDS011;1786;52.870;9.578;2024-02-28T08:20:31;36.20;;;22.30;;
3543;SDS011;1786;52.870;9.578;2024-02-28T08:22:58;41.67;;;24.23;;
3543;SDS011;1786;52.870;9.578;2024-02-28T08:25:26;41.13;;;21.17;;
3543;SDS011;1786;52.870;9.578;2024-02-28T08:27:53;38.67;;;22.30;;
3543;SDS011;1786;52.870;9.578;2024-02-28T08:30:19;36.70;;;21.70;;
3543;SDS011;1786;52.870;9.578;2024-02-28T08:32:46;37.57;;;21.80;;
3543;SDS011;1786;52.870;9.578;2024-02-28T08:35:13;39.97;;;22.73;;
3543;SDS011;1786;52.870;9.578;2024-02-28T08:37:39;42.00;;;23.47;;
3543;SDS011;1786;52.870;9.578;2024-02-28T08:40:07;39.83;;;21.87;;
3543;SDS011;1786;52.870;9.578;2024-02-28T08:42:34;36.40;;;21.97;;
3543;SDS011;1786;52.870;9.578;2024-02-28T08:45:01;39.70;;;22.97;;
3543;SDS011;1786;52.870;9.578;2024-02-28T08:47:30;43.10;;;23.30;;
3543;SDS011;1786;52.870;9.578;2024-02-28T08:49:56;37.80;;;23.50;;
3543;SDS011;1786;52.870;9.578;2024-02-28T08:52:23;38.50;;;21.37;;
3543;SDS011;1786;52.870;9.578;2024-02-28T08:54:50;39.30;;;22.47;;
3543;SDS011;1786;52.870;9.578;2024-02-28T08:57:16;40.63;;;21.27;;
3543;SDS011;1786;52.870;9.578;2024-02-28T08:59:43;37.97;;;21.70;;
3543;SDS011;1786;52.870;9.578;2024-02-28T09:02:10;38.50;;;22.30;;
3543;SDS011;1786;52.870;9.578;2024-02-28T09:04:38;37.17;;;22.30;;
3543;SDS011;1786;52.870;9.578;2024-02-28T09:07:04;38.60;;;22.40;;
3543;SDS011;1786;52.870;9.578;2024-02-28T09:09:31;33.10;;;20.97;;
3543;SDS011;1786;52.870;9.578;2024-02-28T09:12:03;40.03;;;21.60;;
3543;SDS011;1786;52.870;9.578;2024-02-28T09:14:30;39.97;;;23.70;;
3543;SDS011;1786;52.870;9.578;2024-02-28T09:16:57;34.33;;;21.70;;
3543;SDS011;1786;52.870;9.578;2024-02-28T09:19:30;37.00;;;22.43;;
3543;SDS011;1786;52.870;9.578;2024-02-28T09:21:57;33.57;;;21.30;;
3543;SDS011;1786;52.870;9.578;2024-02-28T09:24:24;33.23;;;20.80;;
3543;SDS011;1786;52.870;9.578;2024-02-28T09:26:52;34.47;;;21.03;;
3543;SDS011;1786;52.870;9.578;2024-02-28T09:29:19;29.63;;;18.70;;
3543;SDS011;1786;52.870;9.578;2024-02-28T09:31:46;31.40;;;20.50;;
3543;SDS011;1786;52.870;9.578;2024-02-28T09:34:12;38.43;;;23.10;;
3543;SDS011;1786;52.870;9.578;2024-02-28T09:36:40;36.07;;;21.63;;
3543;SDS011;1786;52.870;9.578;2024-02-28T09:39:09;35.27;;;22.90;;
3543;SDS011;1786;52.870;9.578;2024-02-28T09:41:36;35.43;;;23.03;;
3543;SDS011;1786;52.870;9.578;2024-02-28T09:44:03;37.60;;;23.60;;
3543;SDS011;1786;52.870;9.578;2024-02-28T09:46:32;34.03;;;22.90;;
3543;SDS011;1786;52.870;9.578;2024-02-28T09:49:05;37.80;;;23.37;;
3543;SDS011;1786;52.870;9.578;2024-02-28T09:51:34;32.17;;;21.70;;
3543;SDS011;1786;52.870;9.578;2024-02-28T09:54:02;33.80;;;20.50;;
3543;SDS011;1786;52.870;9.578;2024-02-28T09:56:33;35.40;;;22.70;;
3543;SDS011;1786;52.870;9.578;2024-02-28T09:59:00;31.20;;;21.80;;
3543;SDS011;1786;52.870;9.578;2024-02-28T10:01:29;34.37;;;23.70;;
3543;SDS011;1786;52.870;9.578;2024-02-28T10:03:57;31.17;;;21.33;;
3543;SDS011;1786;52.870;9.578;2024-02-28T10:06:27;32.27;;;22.33;;
3543;SDS011;1786;52.870;9.578;2024-02-28T10:08:54;34.10;;;21.37;;
3543;SDS011;1786;52.870;9.578;2024-02-28T10:11:21;28.40;;;19.97;;
3543;SDS011;1786;52.870;9.578;2024-02-28T10:13:49;30.07;;;20.60;;
3543;SDS011;1786;52.870;9.578;2024-02-28T10:16:16;31.57;;;22.27;;
3543;SDS011;1786;52.870;9.578;2024-02-28T10:18:43;29.63;;;21.20;;
3543;SDS011;1786;52.870;9.578;2024-02-28T10:21:13;30.20;;;20.00;;
3543;SDS011;1786;52.870;9.578;2024-02-28T10:23:41;31.73;;;21.70;;
3543;SDS011;1786;52.870;9.578;2024-02-28T10:26:11;31.57;;;22.53;;
3543;SDS011;1786;52.870;9.578;2024-02-28T10:28:39;29.63;;;21.73;;
3543;SDS011;1786;52.870;9.578;2024-02-28T10:31:06;31.83;;;22.00;;
3543;SDS011;1786;52.870;9.578;2024-02-28T10:33:34;31.90;;;22.80;;
3543;SDS011;1786;52.870;9.578;2024-02-28T10:36:03;33.57;;;23.57;;
3543;SDS011;1786;52.870;9.578;2024-02-28T10:38:31;35.17;;;24.40;;
3543;SDS011;1786;52.870;9.578;2024-02-28T10:41:05;34.17;;;24.40;;
3543;SDS011;1786;52.870;9.578;2024-02-28T10:43:35;31.43;;;21.83;;
3543;SDS011;1786;52.870;9.578;2024-02-28T10:46:01;31.40;;;20.33;;
3543;SDS011;1786;52.870;9.578;2024-02-28T10:48:31;29.87;;;21.83;;
3543;SDS011;1786;52.870;9.578;2024-02-28T10:50:58;30.77;;;21.50;;
3543;SDS011;1786;52.870;9.578;2024-02-28T10:53:30;32.30;;;21.63;;
3543;SDS011;1786;52.870;9.578;2024-02-28T10:56:09;31.90;;;22.60;;
3543;SDS011;1786;52.870;9.578;2024-02-28T10:58:41;33.40;;;21.97;;
3543;SDS011;1786;52.870;9.578;2024-02-28T11:01:16;32.40;;;21.07;;
3543;SDS011;1786;52.870;9.578;2024-02-28T11:03:43;32.50;;;21.93;;
3543;SDS011;1786;52.870;9.578;2024-02-28T11:06:18;32.70;;;24.13;;
3543;SDS011;1786;52.870;9.578;2024-02-28T11:08:47;36.67;;;22.47;;
3543;SDS011;1786;52.870;9.578;2024-02-28T11:11:15;38.27;;;25.60;;
3543;SDS011;1786;52.870;9.578;2024-02-28T11:13:53;38.37;;;23.67;;
3543;SDS011;1786;52.870;9.578;2024-02-28T11:16:30;38.40;;;25.23;;
3543;SDS011;1786;52.870;9.578;2024-02-28T11:18:58;39.90;;;24.57;;
3543;SDS011;1786;52.870;9.578;2024-02-28T11:21:26;37.10;;;22.73;;
3543;SDS011;1786;52.870;9.578;2024-02-28T11:24:00;36.47;;;23.93;;
3543;SDS011;1786;52.870;9.578;2024-02-28T11:26:28;38.30;;;23.80;;
3543;SDS011;1786;52.870;9.578;2024-02-28T11:28:54;38.40;;;24.90;;
3543;SDS011;1786;52.870;9.578;2024-02-28T11:31:21;36.30;;;23.30;;
3543;SDS011;1786;52.870;9.578;2024-02-28T11:33:48;38.70;;;24.37;;
3543;SDS011;1786;52.870;9.578;2024-02-28T11:36:15;38.63;;;23.80;;
3543;SDS011;1786;52.870;9.578;2024-02-28T11:38:43;41.20;;;26.30;;
3543;SDS011;1786;52.870;9.578;2024-02-28T11:41:09;39.83;;;23.90;;
3543;SDS011;1786;52.870;9.578;2024-02-28T11:43:36;40.57;;;24.20;;
3543;SDS011;1786;52.870;9.578;2024-02-28T11:46:17;43.10;;;25.07;;
3543;SDS011;1786;52.870;9.578;2024-02-28T11:48:44;40.27;;;24.50;;
3543;SDS011;1786;52.870;9.578;2024-02-28T11:51:12;34.37;;;22.00;;
3543;SDS011;1786;52.870;9.578;2024-02-28T11:53:38;38.00;;;23.33;;
3543;SDS011;1786;52.870;9.578;2024-02-28T11:56:05;38.87;;;23.27;;
3543;SDS011;1786;52.870;9.578;2024-02-28T11:58:32;37.23;;;22.73;;
3543;SDS011;1786;52.870;9.578;2024-02-28T12:00:59;34.93;;;21.67;;
3543;SDS011;1786;52.870;9.578;2024-02-28T12:03:25;36.00;;;21.97;;
3543;SDS011;1786;52.870;9.578;2024-02-28T12:05:54;35.97;;;20.60;;
3543;SDS011;1786;52.870;9.578;2024-02-28T12:08:22;37.33;;;21.90;;
3543;SDS011;1786;52.870;9.578;2024-02-28T12:10:52;38.10;;;21.07;;
3543;SDS011;1786;52.870;9.578;2024-02-28T12:13:19;37.00;;;21.90;;
3543;SDS011;1786;52.870;9.578;2024-02-28T12:15:46;35.93;;;21.30;;
3543;SDS011;1786;52.870;9.578;2024-02-28T12:18:15;37.37;;;22.07;;
3543;SDS011;1786;52.870;9.578;2024-02-28T12:20:42;38.63;;;23.20;;
3543;SDS011;1786;52.870;9.578;2024-02-28T12:23:08;41.57;;;22.47;;
3543;SDS011;1786;52.870;9.578;2024-02-28T12:25:35;37.00;;;21.40;;
3543;SDS011;1786;52.870;9.578;2024-02-28T12:28:02;36.13;;;22.23;;
3543;SDS011;1786;52.870;9.578;2024-02-28T12:30:38;36.50;;;21.63;;
3543;SDS011;1786;52.870;9.578;2024-02-28T12:33:07;42.93;;;22.60;;
3543;SDS011;1786;52.870;9.578;2024-02-28T12:35:33;38.00;;;22.40;;
3543;SDS011;1786;52.870;9.578;2024-02-28T12:38:00;36.57;;;21.40;;
3543;SDS011;1786;52.870;9.578;2024-02-28T12:40:27;41.23;;;23.73;;
3543;SDS011;1786;52.870;9.578;2024-02-28T12:42:53;42.53;;;22.33;;
3543;SDS011;1786;52.870;9.578;2024-02-28T12:45:20;37.20;;;21.40;;
3543;SDS011;1786;52.870;9.578;2024-02-28T12:47:51;42.20;;;23.20;;
3543;SDS011;1786;52.870;9.578;2024-02-28T12:50:19;41.40;;;22.10;;
3543;SDS011;1786;52.870;9.578;2024-02-28T12:52:48;42.67;;;23.63;;
3543;SDS011;1786;52.870;9.578;2024-02-28T12:55:19;42.83;;;21.73;;
3543;SDS011;1786;52.870;9.578;2024-02-28T12:57:49;46.73;;;22.87;;
3543;SDS011;1786;52.870;9.578;2024-02-28T13:00:17;47.90;;;22.40;;
3543;SDS011;1786;52.870;9.578;2024-02-28T13:02:44;49.27;;;23.77;;
3543;SDS011;1786;52.870;9.578;2024-02-28T13:05:11;40.93;;;20.90;;
3543;SDS011;1786;52.870;9.578;2024-02-28T13:07:39;41.30;;;21.97;;
3543;SDS011;1786;52.870;9.578;2024-02-28T13:10:06;42.73;;;22.87;;
3543;SDS011;1786;52.870;9.578;2024-02-28T13:12:35;45.27;;;24.67;;
3543;SDS011;1786;52.870;9.578;2024-02-28T13:15:02;40.13;;;21.83;;
3543;SDS011;1786;52.870;9.578;2024-02-28T13:17:29;39.40;;;22.60;;
3543;SDS011;1786;52.870;9.578;2024-02-28T13:19:56;44.27;;;22.20;;
3543;SDS011;1786;52.870;9.578;2024-02-28T13:22:22;40.70;;;22.37;;
3543;SDS011;1786;52.870;9.578;2024-02-28T13:24:49;42.70;;;23.20;;
3543;SDS011;1786;52.870;9.578;2024-02-28T13:27:16;51.40;;;21.80;;
3543;SDS011;1786;52.870;9.578;2024-02-28T13:29:43;39.20;;;22.60;;
3543;SDS011;1786;52.870;9.578;2024-02-28T13:32:09;43.73;;;20.60;;
3543;SDS011;1786;52.870;9.578;2024-02-28T13:34:36;38.33;;;20.47;;
3543;SDS011;1786;52.870;9.578;2024-02-28T13:37:03;40.30;;;21.30;;
3543;SDS011;1786;52.870;9.578;2024-02-28T13:39:30;44.03;;;21.53;;
3543;SDS011;1786;52.870;9.578;2024-02-28T13:41:56;44.83;;;21.90;;
3543;SDS011;1786;52.870;9.578;2024-02-28T13:44:23;41.70;;;20.50;;
3543;SDS011;1786;52.870;9.578;2024-02-28T13:46:50;36.90;;;20.03;;
3543;SDS011;1786;52.870;9.578;2024-02-28T13:49:18;36.40;;;21.00;;
3543;SDS011;1786;52.870;9.578;2024-02-28T13:51:46;43.20;;;21.53;;
3543;SDS011;1786;52.870;9.578;2024-02-28T13:54:15;43.47;;;21.60;;
3543;SDS011;1786;52.870;9.578;2024-02-28T13:56:42;39.40;;;21.53;;
3543;SDS011;1786;52.870;9.578;2024-02-28T13:59:08;42.33;;;21.40;;
3543;SDS011;1786;52.870;9.578;2024-02-28T14:01:36;44.30;;;21.70;;
3543;SDS011;1786;52.870;9.578;2024-02-28T14:04:03;44.93;;;19.77;;
3543;SDS011;1786;52.870;9.578;2024-02-28T14:06:30;38.40;;;20.33;;
3543;SDS011;1786;52.870;9.578;2024-02-28T14:08:57;38.10;;;19.30;;
3543;SDS011;1786;52.870;9.578;2024-02-28T14:11:23;40.23;;;20.37;;
3543;SDS011;1786;52.870;9.578;2024-02-28T14:13:50;35.23;;;18.63;;
3543;SDS011;1786;52.870;9.578;2024-02-28T14:16:17;42.80;;;20.60;;
3543;SDS011;1786;52.870;9.578;2024-02-28T14:18:45;33.40;;;18.60;;
3543;SDS011;1786;52.870;9.578;2024-02-28T14:21:12;34.93;;;20.00;;
3543;SDS011;1786;52.870;9.578;2024-02-28T14:23:39;41.63;;;19.20;;
3543;SDS011;1786;52.870;9.578;2024-02-28T14:26:07;37.60;;;18.30;;
3543;SDS011;1786;52.870;9.578;2024-02-28T14:28:34;39.10;;;19.13;;
3543;SDS011;1786;52.870;9.578;2024-02-28T14:31:01;37.17;;;19.60;;
3543;SDS011;1786;52.870;9.578;2024-02-28T14:33:28;40.07;;;19.80;;
3543;SDS011;1786;52.870;9.578;2024-02-28T14:35:55;41.00;;;19.70;;
3543;SDS011;1786;52.870;9.578;2024-02-28T14:38:22;43.13;;;19.80;;
3543;SDS011;1786;52.870;9.578;2024-02-28T14:40:48;34.70;;;17.90;;
3543;SDS011;1786;52.870;9.578;2024-02-28T14:43:15;35.00;;;19.23;;
3543;SDS011;1786;52.870;9.578;2024-02-28T14:45:42;38.03;;;19.23;;
3543;SDS011;1786;52.870;9.578;2024-02-28T14:48:08;30.07;;;17.50;;
3543;SDS011;1786;52.870;9.578;2024-02-28T14:50:35;37.90;;;18.73;;
3543;SDS011;1786;52.870;9.578;2024-02-28T14:53:02;34.53;;;17.03;;
3543;SDS011;1786;52.870;9.578;2024-02-28T14:55:29;34.50;;;17.87;;
3543;SDS011;1786;52.870;9.578;2024-02-28T14:57:56;33.87;;;18.30;;